Terminal Aerodrome Forecast
Issued by NWS Sioux Falls, SD

Home | Current Version | Previous Version | Text Only | Print | Product List | Glossary On
Versions: 1 2 3 4 5 6 7 8 9 10 11 12 13 14 15 16 17 18 19 20
000
FTUS43 KFSD 272327
TAFFSD
TAF
KFSD 272327Z 2800/2824 12008KT 6SM TSRA SCT025CB BKN080
      TEMPO 2800/2801 3SM TSRA BKN015CB
     FM280200 10011KT P6SM OVC035
     FM280500 10009KT 6SM SHRA OVC080
     FM281000 08007KT 3SM BR OVC007
     FM281500 06010KT 6SM BR OVC010
     FM281800 05012KT P6SM BKN028
     FM282100 05012KT P6SM SCT035=

USA.gov is the U.S. government's official web portal to all federal, state and local government web resources and services.